Time;durP1;ratioP1;P1;durP2;ratioP2;P2;SDS_P1;SDS_P2;PMS_P1;PMS_P2;Temp;Humidity;BMP_temperature;BMP_pressure;BME280_temperature;BME280_humidity;BME280_pressure;Samples;Min_cycle;Max_cycle;Signal;HPM_P1;HPM_P2
2022/11/22 00:01:37;;;;;;;32.20;19.52;;;4.40;99.90;;;;;;5008461;28;20079;-73
2022/11/22 00:04:03;;;;;;;30.35;20.45;;;4.40;99.90;;;;;;5005321;28;20025;-71
2022/11/22 00:06:29;;;;;;;28.75;18.13;;;4.30;99.90;;;;;;4994622;28;20134;-69
2022/11/22 00:08:55;;;;;;;28.13;17.92;;;4.30;99.90;;;;;;4998069;28;20455;-70
2022/11/22 00:11:20;;;;;;;26.90;15.98;;;4.30;99.90;;;;;;5000303;28;20030;-71
2022/11/22 00:13:46;;;;;;;29.17;17.38;;;4.30;99.90;;;;;;4997047;28;20030;-70
2022/11/22 00:16:12;;;;;;;25.05;14.70;;;4.30;99.90;;;;;;5012209;28;20466;-69
2022/11/22 00:18:38;;;;;;;27.60;17.38;;;4.30;99.90;;;;;;5011928;28;20084;-69
2022/11/22 00:21:06;;;;;;;28.75;16.85;;;4.30;99.90;;;;;;5012035;28;20539;-71
2022/11/22 00:23:32;;;;;;;25.52;16.27;;;4.30;99.90;;;;;;5012468;28;20046;-75
2022/11/22 00:25:57;;;;;;;32.28;17.58;;;4.20;99.90;;;;;;5012512;28;20068;-75
2022/11/22 00:28:23;;;;;;;28.65;15.70;;;4.20;99.90;;;;;;5002287;28;20050;-74
2022/11/22 00:30:49;;;;;;;23.40;14.77;;;4.20;99.90;;;;;;4994470;28;20026;-74
2022/11/22 00:33:15;;;;;;;26.25;15.32;;;4.20;99.90;;;;;;5009618;28;20017;-69
2022/11/22 00:35:41;;;;;;;26.30;14.63;;;4.20;99.90;;;;;;4977153;28;20028;-74
2022/11/22 00:38:06;;;;;;;26.98;15.90;;;4.20;99.90;;;;;;5010796;28;20056;-73
2022/11/22 00:40:32;;;;;;;29.02;15.65;;;4.20;99.90;;;;;;5010445;28;20081;-71
2022/11/22 00:42:58;;;;;;;36.17;17.63;;;4.20;99.90;;;;;;4995996;28;20034;-72
2022/11/22 00:45:24;;;;;;;28.85;15.75;;;4.20;99.90;;;;;;4991716;28;20384;-69
2022/11/22 00:47:50;;;;;;;25.88;15.63;;;4.20;99.90;;;;;;4977029;28;20532;-70
2022/11/22 00:50:15;;;;;;;33.60;15.68;;;4.20;99.90;;;;;;5010693;28;20030;-73
2022/11/22 00:52:41;;;;;;;25.83;16.13;;;4.20;99.90;;;;;;4996830;28;20428;-73
2022/11/22 00:55:07;;;;;;;35.25;15.65;;;4.30;99.90;;;;;;4991098;28;20023;-73
2022/11/22 00:57:39;;;;;;;31.15;17.63;;;4.30;99.90;;;;;;4990960;28;20102;-70
2022/11/22 01:00:07;;;;;;;30.42;18.08;;;4.20;99.90;;;;;;4990450;28;20601;-72
2022/11/22 01:02:32;;;;;;;27.52;16.40;;;4.20;99.90;;;;;;4991021;28;20023;-74
2022/11/22 01:04:58;;;;;;;38.88;17.00;;;4.20;99.90;;;;;;4992956;28;20030;-74
2022/11/22 01:07:24;;;;;;;32.17;18.73;;;4.20;99.90;;;;;;4990653;28;20076;-73
2022/11/22 01:09:50;;;;;;;30.38;18.40;;;4.20;99.90;;;;;;4991481;28;20042;-74
2022/11/22 01:12:17;;;;;;;31.05;18.77;;;4.10;99.90;;;;;;4996376;28;20029;-73
2022/11/22 01:14:43;;;;;;;34.75;19.00;;;4.20;99.90;;;;;;4993147;28;20034;-74
2022/11/22 01:17:08;;;;;;;37.65;18.55;;;4.10;99.90;;;;;;4990260;28;20442;-74
2022/11/22 01:19:34;;;;;;;30.90;18.65;;;4.10;99.90;;;;;;5004772;28;20046;-73
2022/11/22 01:22:00;;;;;;;35.45;21.48;;;4.10;99.90;;;;;;4992886;28;20384;-69
2022/11/22 01:24:26;;;;;;;29.25;19.33;;;4.10;99.90;;;;;;5008219;28;20041;-69
2022/11/22 01:26:52;;;;;;;30.85;17.55;;;4.10;99.90;;;;;;5011606;28;20042;-69
2022/11/22 01:29:18;;;;;;;29.50;19.13;;;4.10;99.90;;;;;;5011276;28;20472;-71
2022/11/22 01:31:44;;;;;;;35.65;20.40;;;4.10;99.90;;;;;;5011395;28;20045;-69
2022/11/22 01:34:10;;;;;;;27.25;16.48;;;4.10;99.90;;;;;;5011170;28;20034;-69
2022/11/22 01:36:35;;;;;;;22.88;14.35;;;4.10;99.90;;;;;;5011017;28;20623;-70
2022/11/22 01:39:01;;;;;;;30.33;14.30;;;4.20;99.90;;;;;;5010182;28;20128;-69
2022/11/22 01:41:27;;;;;;;25.05;14.70;;;4.20;99.90;;;;;;5011032;28;20030;-74
2022/11/22 01:43:53;;;;;;;26.40;15.52;;;4.20;99.90;;;;;;5010156;28;20026;-71
2022/11/22 01:46:33;;;;;;;27.98;16.48;;;4.10;99.90;;;;;;5003514;28;20077;-71
2022/11/22 01:49:10;;;;;;;23.67;15.38;;;4.10;99.90;;;;;;5010982;28;20057;-73
2022/11/22 01:51:39;;;;;;;24.42;15.77;;;4.10;99.90;;;;;;5010363;28;20080;-74
2022/11/22 01:54:10;;;;;;;36.70;18.30;;;4.10;99.90;;;;;;5007940;28;20503;-69
2022/11/22 01:56:39;;;;;;;28.73;17.13;;;4.10;99.90;;;;;;5009157;28;20041;-71
2022/11/22 01:59:10;;;;;;;28.10;16.33;;;4.10;99.90;;;;;;5010408;28;20038;-70
2022/11/22 02:01:36;;;;;;;27.13;16.02;;;4.20;99.90;;;;;;5009683;28;20034;-69
2022/11/22 02:04:04;;;;;;;27.27;14.65;;;4.20;99.90;;;;;;5010596;28;20021;-68
2022/11/22 02:06:45;;;;;;;28.25;16.95;;;4.20;99.90;;;;;;5011425;28;20026;-72
2022/11/22 02:09:12;;;;;;;30.65;16.95;;;4.20;99.90;;;;;;5011283;28;20038;-69
2022/11/22 02:11:43;;;;;;;24.75;15.85;;;4.20;99.90;;;;;;5011976;28;20022;-70
2022/11/22 02:14:13;;;;;;;26.92;16.77;;;4.20;99.90;;;;;;5006556;28;20041;-69
2022/11/22 02:16:41;;;;;;;32.95;17.98;;;4.20;99.90;;;;;;5008930;28;20520;-70
2022/11/22 02:19:16;;;;;;;30.42;17.75;;;4.20;99.90;;;;;;5002766;28;20034;-69
2022/11/22 02:21:46;;;;;;;33.03;16.63;;;4.10;99.90;;;;;;4997668;28;20029;-69
2022/11/22 02:24:30;;;;;;;37.33;17.10;;;4.00;99.90;;;;;;5011302;28;20388;-70
2022/11/22 02:26:57;;;;;;;42.13;18.42;;;3.90;99.90;;;;;;5011448;28;20117;-69
2022/11/22 02:29:24;;;;;;;52.22;21.65;;;3.90;99.90;;;;;;5011509;28;20034;-72
2022/11/22 02:31:50;;;;;;;41.78;21.63;;;3.90;99.90;;;;;;5011268;28;20053;-70
2022/11/22 02:34:15;;;;;;;29.38;18.45;;;3.80;99.90;;;;;;5011139;28;20054;-70
2022/11/22 02:36:47;;;;;;;34.55;16.73;;;3.80;99.90;;;;;;4997371;28;20022;-74
2022/11/22 02:39:16;;;;;;;28.00;18.08;;;3.80;99.90;;;;;;5011305;28;20077;-70
2022/11/22 02:41:43;;;;;;;27.80;17.42;;;3.80;99.90;;;;;;5008664;28;20022;-71
2022/11/22 02:44:10;;;;;;;32.72;18.55;;;3.80;99.90;;;;;;4995074;28;20030;-69
2022/11/22 02:46:49;;;;;;;27.17;18.00;;;3.80;99.90;;;;;;4990504;28;20035;-69
2022/11/22 02:49:19;;;;;;;32.72;18.65;;;3.80;99.90;;;;;;4990972;28;20112;-69
2022/11/22 02:51:47;;;;;;;34.05;17.88;;;3.90;99.90;;;;;;4990489;28;20018;-70
2022/11/22 02:54:13;;;;;;;31.67;18.75;;;3.90;99.90;;;;;;4990385;28;20030;-69
2022/11/22 02:56:39;;;;;;;43.60;21.35;;;3.90;99.90;;;;;;4992020;28;20108;-69
2022/11/22 02:59:05;;;;;;;38.30;19.02;;;3.90;99.90;;;;;;4993815;28;20480;-71
2022/11/22 03:01:31;;;;;;;35.88;18.85;;;3.90;99.90;;;;;;4997562;28;20030;-75
2022/11/22 03:03:56;;;;;;;36.63;20.00;;;3.90;99.90;;;;;;5015351;28;20037;-69
2022/11/22 03:06:22;;;;;;;32.10;19.30;;;3.90;99.90;;;;;;5014813;28;20631;-69
2022/11/22 03:08:48;;;;;;;34.22;19.05;;;3.90;99.90;;;;;;5019578;28;20034;-70
2022/11/22 03:11:14;;;;;;;29.23;16.92;;;3.90;99.90;;;;;;5013594;28;20022;-70
2022/11/22 03:13:40;;;;;;;31.48;17.73;;;4.00;99.90;;;;;;5014666;28;20026;-70
2022/11/22 03:16:06;;;;;;;29.15;16.38;;;3.90;99.90;;;;;;5004311;28;20040;-70
2022/11/22 03:18:35;;;;;;;30.65;17.42;;;4.00;99.90;;;;;;5014828;28;20056;-69
2022/11/22 03:21:07;;;;;;;33.97;18.55;;;4.00;99.90;;;;;;5014717;28;20034;-69
2022/11/22 03:23:33;;;;;;;34.30;16.70;;;4.00;99.90;;;;;;5014752;28;20506;-69
2022/11/22 03:26:05;;;;;;;25.88;15.77;;;4.00;99.90;;;;;;5014714;28;20052;-69
2022/11/22 03:28:30;;;;;;;27.48;16.17;;;3.90;99.90;;;;;;5014603;28;20561;-68
2022/11/22 03:30:57;;;;;;;32.63;14.88;;;3.90;99.90;;;;;;5014675;28;20112;-69
2022/11/22 03:33:22;;;;;;;29.25;15.82;;;3.90;99.90;;;;;;4997018;28;20480;-69
2022/11/22 03:35:48;;;;;;;24.05;13.23;;;3.90;99.90;;;;;;5014607;28;20098;-70
2022/11/22 03:38:14;;;;;;;33.10;15.90;;;3.80;99.90;;;;;;5014251;28;20490;-71
2022/11/22 03:40:44;;;;;;;22.42;14.80;;;3.90;99.90;;;;;;5014595;28;20033;-69
2022/11/22 03:43:10;;;;;;;27.08;14.82;;;3.80;99.90;;;;;;5014539;28;20037;-70
2022/11/22 03:45:35;;;;;;;25.00;15.43;;;3.80;99.90;;;;;;5014338;28;20476;-70
2022/11/22 03:48:01;;;;;;;23.85;15.63;;;3.80;99.90;;;;;;5014265;28;20469;-69
2022/11/22 03:50:27;;;;;;;27.23;16.02;;;3.80;99.90;;;;;;5013902;28;20119;-71
2022/11/22 03:52:53;;;;;;;26.85;16.75;;;3.80;99.90;;;;;;5014308;28;20030;-70
2022/11/22 03:55:19;;;;;;;38.70;17.70;;;3.70;99.90;;;;;;5014347;28;20068;-70
2022/11/22 03:57:45;;;;;;;31.23;17.45;;;3.70;99.90;;;;;;5014230;28;20025;-70
2022/11/22 04:00:11;;;;;;;29.08;17.85;;;3.70;99.90;;;;;;5013852;28;20022;-70
2022/11/22 04:02:42;;;;;;;31.83;17.88;;;3.70;99.90;;;;;;5013648;28;20113;-70
2022/11/22 04:05:08;;;;;;;33.40;19.17;;;3.60;99.90;;;;;;4995813;28;20125;-70
2022/11/22 04:07:34;;;;;;;35.17;19.63;;;3.60;99.90;;;;;;5013502;28;20030;-69
2022/11/22 04:10:00;;;;;;;29.50;17.73;;;3.60;99.90;;;;;;5013919;28;20373;-70
2022/11/22 04:12:27;;;;;;;31.45;17.50;;;3.50;99.90;;;;;;5013836;28;20022;-70
2022/11/22 04:15:05;;;;;;;40.22;18.50;;;3.50;99.90;;;;;;5013724;28;20018;-70
2022/11/22 04:17:43;;;;;;;31.65;17.02;;;3.50;99.90;;;;;;5013846;28;20425;-70
2022/11/22 04:23:06;;;;;;;30.25;16.85;;;3.50;99.90;;;;;;5013416;28;20029;-70
2022/11/22 04:25:34;;;;;;;24.95;15.25;;;3.40;99.90;;;;;;5013598;28;20033;-71
2022/11/22 04:28:01;;;;;;;25.25;14.73;;;3.40;99.90;;;;;;5013161;28;20050;-70
2022/11/22 04:33:14;;;;;;;27.27;15.70;;;3.40;99.90;;;;;;5000198;28;20669;-70
2022/11/22 04:35:40;;;;;;;32.15;17.88;;;3.40;99.90;;;;;;5013543;28;20103;-70
2022/11/22 04:38:06;;;;;;;31.83;17.98;;;3.40;99.90;;;;;;4995573;28;20029;-70
2022/11/22 04:40:32;;;;;;;31.38;17.67;;;3.50;99.90;;;;;;5013312;28;20030;-70
2022/11/22 04:45:44;;;;;;;26.95;16.73;;;3.40;99.90;;;;;;5012920;28;20497;-70
2022/11/22 04:48:11;;;;;;;24.83;15.20;;;3.40;99.90;;;;;;5012839;28;20032;-69
2022/11/22 04:53:23;;;;;;;25.77;14.68;;;3.50;99.90;;;;;;5013144;28;20034;-71
2022/11/22 04:55:49;;;;;;;25.30;12.85;;;3.50;99.90;;;;;;5013040;28;20029;-69
2022/11/22 04:58:15;;;;;;;22.00;13.55;;;3.50;99.90;;;;;;5012660;28;20164;-70
2022/11/22 05:00:41;;;;;;;21.92;13.07;;;3.50;99.90;;;;;;5012537;28;20101;-70
2022/11/22 05:03:07;;;;;;;22.38;14.70;;;3.50;99.90;;;;;;5012191;28;20026;-71
2022/11/22 05:05:41;;;;;;;23.08;15.50;;;3.50;99.90;;;;;;5013165;28;20032;-69
2022/11/22 05:08:08;;;;;;;22.55;14.85;;;3.60;99.90;;;;;;5011842;28;20041;-70
2022/11/22 05:11:08;;;;;;;25.65;16.35;;;3.60;99.90;;;;;;5011787;28;20032;-70
2022/11/22 05:13:34;;;;;;;23.63;13.80;;;3.60;99.90;;;;;;5010359;28;20541;-71
2022/11/22 05:16:00;;;;;;;;;;;3.60;99.90;;;;;;5012578;28;20057;-69
2022/11/22 05:18:26;;;;;;;25.40;15.13;;;3.60;99.90;;;;;;5011330;28;19928;-69
2022/11/22 05:20:53;;;;;;;20.90;12.40;;;3.60;99.90;;;;;;5012275;28;20148;-70
2022/11/22 05:26:04;;;;;;;24.45;14.95;;;3.60;99.90;;;;;;5010014;28;20029;-70
2022/11/22 05:28:32;;;;;;;27.92;15.63;;;3.60;99.90;;;;;;5012281;28;20053;-72
2022/11/22 05:30:57;;;;;;;20.85;13.60;;;3.60;99.90;;;;;;5011982;28;20026;-74
2022/11/22 05:33:24;;;;;;;24.73;14.95;;;3.60;99.90;;;;;;5011723;28;20411;-77
2022/11/22 05:35:50;;;;;;;29.67;18.60;;;3.60;99.90;;;;;;5011927;28;20026;-71
2022/11/22 05:38:16;;;;;;;23.27;15.05;;;3.60;99.90;;;;;;5011023;28;20056;-72
2022/11/22 05:40:42;;;;;;;30.58;18.77;;;3.50;99.90;;;;;;5011771;28;20044;-72
2022/11/22 05:43:07;;;;;;;29.75;18.90;;;3.50;99.90;;;;;;5011982;28;20101;-71
2022/11/22 05:45:33;;;;;;;32.85;19.77;;;3.60;99.90;;;;;;5010929;28;20026;-71
2022/11/22 05:47:59;;;;;;;38.83;20.95;;;3.50;99.90;;;;;;5011853;28;20030;-71
2022/11/22 05:50:25;;;;;;;32.42;20.70;;;3.60;99.90;;;;;;5010815;28;20026;-71
2022/11/22 05:52:58;;;;;;;29.05;18.55;;;3.50;99.90;;;;;;5011638;28;20080;-72
2022/11/22 05:55:24;;;;;;;29.92;19.48;;;3.50;99.90;;;;;;5012068;28;20044;-71
2022/11/22 05:57:50;;;;;;;30.83;17.20;;;3.50;99.90;;;;;;4994159;28;20021;-71
2022/11/22 06:00:16;;;;;;;32.35;18.38;;;3.50;99.90;;;;;;5011269;28;20053;-71
2022/11/22 06:02:42;;;;;;;26.65;16.52;;;3.50;99.90;;;;;;5011401;28;20033;-71
2022/11/22 06:05:08;;;;;;;27.30;17.58;;;3.50;99.90;;;;;;5011864;28;20105;-72
2022/11/22 06:07:34;;;;;;;32.95;19.13;;;3.60;99.90;;;;;;5011553;28;20018;-71
2022/11/22 06:09:59;;;;;;;32.13;21.25;;;3.70;99.90;;;;;;5011440;28;20502;-71
2022/11/22 06:12:25;;;;;;;28.95;17.80;;;3.70;99.90;;;;;;4992979;28;20037;-71
2022/11/22 06:14:51;;;;;;;30.15;19.48;;;3.70;99.90;;;;;;4989770;28;20508;-70
2022/11/22 06:17:17;;;;;;;27.33;18.00;;;3.80;99.90;;;;;;5005137;28;20033;-72
2022/11/22 06:19:43;;;;;;;33.03;18.15;;;3.80;99.90;;;;;;5011579;28;20107;-71
2022/11/22 06:22:09;;;;;;;28.27;18.73;;;3.90;99.90;;;;;;5011020;28;20029;-72
2022/11/22 06:24:35;;;;;;;25.98;17.60;;;3.90;99.90;;;;;;5010917;28;20018;-72
2022/11/22 06:27:00;;;;;;;25.77;16.75;;;3.90;99.90;;;;;;5011427;28;20053;-71
2022/11/22 06:29:26;;;;;;;29.00;16.20;;;4.00;99.90;;;;;;5011103;28;20026;-71
2022/11/22 06:31:52;;;;;;;23.55;13.43;;;4.00;99.90;;;;;;5014973;28;20622;-71
2022/11/22 06:34:18;;;;;;;23.65;14.02;;;4.10;99.90;;;;;;5015507;28;20053;-71
2022/11/22 06:36:45;;;;;;;25.40;13.27;;;4.10;99.90;;;;;;5015125;28;20024;-75
2022/11/22 06:39:11;;;;;;;24.88;14.38;;;4.20;99.90;;;;;;5015255;28;20053;-71
2022/11/22 06:41:37;;;;;;;23.58;14.48;;;4.20;99.90;;;;;;5015332;28;20021;-72
2022/11/22 06:44:05;;;;;;;30.50;18.73;;;4.30;99.90;;;;;;5015494;28;20068;-72
2022/11/22 06:46:32;;;;;;;29.95;19.40;;;4.30;99.90;;;;;;5015359;28;20097;-71
2022/11/22 06:48:58;;;;;;;37.08;20.50;;;4.30;99.90;;;;;;5015211;28;20036;-70
2022/11/22 06:51:29;;;;;;;47.42;23.15;;;4.30;99.90;;;;;;5014994;28;20454;-71
2022/11/22 06:53:56;;;;;;;42.47;23.63;;;4.30;99.90;;;;;;5015199;28;20036;-71
2022/11/22 06:56:31;;;;;;;36.13;22.33;;;4.40;99.90;;;;;;5015231;28;20030;-71
2022/11/22 06:58:57;;;;;;;33.30;19.00;;;4.50;99.90;;;;;;5014753;28;20046;-71
2022/11/22 07:01:25;;;;;;;31.55;17.48;;;4.50;99.90;;;;;;5014978;28;20029;-71
2022/11/22 07:03:56;;;;;;;32.53;15.10;;;4.60;99.90;;;;;;5014801;28;20022;-71
2022/11/22 07:06:27;;;;;;;36.28;17.98;;;4.70;99.90;;;;;;5015019;28;20041;-72
2022/11/22 07:08:53;;;;;;;30.00;16.27;;;4.80;99.90;;;;;;4996876;28;20045;-71
2022/11/22 07:11:22;;;;;;;34.22;16.83;;;4.90;99.90;;;;;;5014734;28;20877;-71
2022/11/22 07:13:49;;;;;;;29.45;17.02;;;4.90;99.90;;;;;;5014816;28;20026;-72
2022/11/22 07:16:18;;;;;;;29.00;16.52;;;5.00;99.90;;;;;;4996720;28;20029;-71
2022/11/22 07:18:44;;;;;;;31.67;18.70;;;5.00;99.90;;;;;;5014222;28;20065;-71
2022/11/22 07:21:13;;;;;;;28.65;16.95;;;5.00;99.90;;;;;;5014430;28;20068;-71
2022/11/22 07:23:40;;;;;;;27.58;16.55;;;5.10;99.90;;;;;;5014879;28;20468;-71
2022/11/22 07:26:06;;;;;;;24.95;15.02;;;5.10;99.90;;;;;;5014561;28;20030;-71
2022/11/22 07:28:32;;;;;;;26.73;15.60;;;5.20;99.90;;;;;;5014867;28;20037;-71
2022/11/22 07:31:03;;;;;;;31.80;15.68;;;5.20;99.90;;;;;;5014638;28;20034;-72
2022/11/22 07:33:29;;;;;;;31.23;19.90;;;5.30;99.90;;;;;;5014456;28;20026;-72
2022/11/22 07:36:02;;;;;;;61.40;40.22;;;5.40;99.90;;;;;;5014569;28;20018;-72
2022/11/22 07:38:27;;;;;;;79.80;53.08;;;5.30;99.90;;;;;;5014005;28;20080;-72
2022/11/22 07:40:53;;;;;;;53.63;36.40;;;5.30;99.90;;;;;;5014533;28;20030;-73
2022/11/22 07:43:19;;;;;;;52.85;38.58;;;5.30;99.90;;;;;;5013990;28;20022;-71
2022/11/22 07:45:45;;;;;;;42.08;29.98;;;5.30;99.90;;;;;;5014580;28;20407;-72
2022/11/22 07:48:13;;;;;;;39.08;26.95;;;5.30;99.90;;;;;;5014436;28;20132;-71
2022/11/22 07:50:40;;;;;;;36.53;27.52;;;5.40;99.90;;;;;;5014482;28;20041;-72
2022/11/22 07:53:07;;;;;;;33.47;24.48;;;5.50;99.90;;;;;;5014552;28;20029;-73
2022/11/22 07:55:33;;;;;;;29.98;21.10;;;5.60;99.90;;;;;;5014277;28;20021;-72
2022/11/22 07:57:59;;;;;;;24.70;14.13;;;5.60;99.90;;;;;;5014307;28;20112;-72
2022/11/22 08:00:26;;;;;;;27.95;17.27;;;5.70;99.90;;;;;;5013887;28;20033;-72
2022/11/22 08:02:52;;;;;;;29.58;17.95;;;5.70;99.90;;;;;;5013736;28;20037;-72
2022/11/22 08:05:18;;;;;;;27.13;14.88;;;5.80;99.90;;;;;;5013646;28;20030;-73
2022/11/22 08:07:47;;;;;;;26.45;15.57;;;5.90;99.90;;;;;;5012835;28;20052;-72
2022/11/22 08:10:13;;;;;;;28.05;15.15;;;5.90;99.90;;;;;;5013614;28;20681;-71
2022/11/22 08:12:40;;;;;;;27.38;14.85;;;6.00;99.90;;;;;;5013495;28;20491;-71
2022/11/22 08:15:06;;;;;;;28.08;14.60;;;6.00;99.90;;;;;;5013267;28;20509;-71
2022/11/22 08:17:32;;;;;;;26.60;15.80;;;6.00;99.90;;;;;;5014383;28;20072;-72
2022/11/22 08:19:58;;;;;;;32.28;17.65;;;6.10;99.90;;;;;;5013134;28;20499;-70
2022/11/22 08:22:24;;;;;;;24.58;16.50;;;6.10;99.90;;;;;;5014388;28;20359;-71
2022/11/22 08:24:50;;;;;;;24.73;13.00;;;6.20;99.90;;;;;;5013867;28;20113;-70
2022/11/22 08:27:15;;;;;;;24.05;13.90;;;6.20;99.90;;;;;;5014168;28;20068;-71
2022/11/22 08:29:41;;;;;;;30.38;18.40;;;6.30;99.90;;;;;;5010283;28;20041;-72
2022/11/22 08:32:07;;;;;;;28.17;18.52;;;6.40;99.90;;;;;;5013446;28;20030;-72
2022/11/22 08:34:33;;;;;;;33.53;19.38;;;6.40;99.90;;;;;;5013378;28;20030;-72
2022/11/22 08:36:59;;;;;;;34.60;21.15;;;6.50;99.90;;;;;;5013385;28;20085;-72
2022/11/22 08:39:25;;;;;;;29.45;16.35;;;6.50;99.90;;;;;;5013733;28;20085;-72
2022/11/22 08:41:51;;;;;;;24.35;15.07;;;6.50;99.90;;;;;;5014209;28;20053;-72
2022/11/22 08:44:16;;;;;;;22.45;11.98;;;6.60;99.90;;;;;;5013189;28;20124;-72
2022/11/22 08:46:42;;;;;;;20.38;11.00;;;6.60;99.90;;;;;;5013154;28;20476;-73
2022/11/22 08:49:10;;;;;;;20.55;12.77;;;6.60;99.90;;;;;;5013366;28;20077;-77
2022/11/22 08:51:36;;;;;;;18.67;10.88;;;6.60;99.90;;;;;;5013402;28;20014;-71
2022/11/22 08:54:02;;;;;;;21.95;11.70;;;6.60;99.90;;;;;;5012129;28;20387;-71
2022/11/22 08:56:27;;;;;;;19.50;10.48;;;6.60;99.90;;;;;;5010763;28;20033;-73
2022/11/22 08:58:54;;;;;;;19.85;11.10;;;6.60;99.90;;;;;;5013518;28;20088;-71
2022/11/22 09:01:22;;;;;;;18.92;10.45;;;6.60;99.90;;;;;;5012633;28;20049;-72
2022/11/22 09:03:48;;;;;;;21.75;11.70;;;6.70;99.90;;;;;;5013234;28;20029;-72
2022/11/22 09:06:17;;;;;;;25.13;13.43;;;6.70;99.90;;;;;;5012442;28;20040;-71
2022/11/22 09:08:42;;;;;;;23.15;11.60;;;6.70;99.90;;;;;;5012780;28;20025;-72
2022/11/22 09:11:11;;;;;;;18.13;9.35;;;6.70;99.90;;;;;;5012810;28;20117;-72
2022/11/22 09:13:37;;;;;;;19.92;10.43;;;6.80;99.90;;;;;;5012633;28;20387;-72
2022/11/22 09:16:09;;;;;;;19.63;10.90;;;6.80;99.90;;;;;;5012206;28;20547;-72
2022/11/22 09:18:35;;;;;;;17.70;10.10;;;6.80;99.90;;;;;;5012782;28;20038;-72
2022/11/22 09:21:04;;;;;;;20.75;11.32;;;6.90;99.90;;;;;;5012930;28;20109;-72
2022/11/22 09:23:30;;;;;;;16.23;9.13;;;7.00;99.90;;;;;;5012181;28;20108;-72
2022/11/22 09:26:07;;;;;;;20.60;10.02;;;7.00;99.90;;;;;;5012500;28;20105;-74
2022/11/22 09:28:34;;;;;;;17.20;10.38;;;7.00;99.90;;;;;;5012074;28;20069;-72
2022/11/22 09:31:02;;;;;;;19.67;12.55;;;7.10;99.90;;;;;;5012233;28;20472;-71
2022/11/22 09:33:29;;;;;;;27.42;18.30;;;7.10;99.90;;;;;;5011905;28;20048;-72
2022/11/22 09:36:10;;;;;;;32.45;19.67;;;7.20;99.90;;;;;;5012686;28;20033;-71
2022/11/22 09:38:36;;;;;;;26.13;13.38;;;7.20;99.90;;;;;;5012243;28;20033;-72
2022/11/22 09:41:16;;;;;;;37.35;18.15;;;7.30;99.90;;;;;;5012707;28;20061;-73
2022/11/22 09:44:09;;;;;;;29.17;18.10;;;7.30;99.90;;;;;;5012154;28;20856;-73
2022/11/22 09:46:47;;;;;;;20.52;11.63;;;7.40;99.90;;;;;;5011576;28;20030;-73
2022/11/22 09:49:28;;;;;;;14.45;7.53;;;7.40;99.90;;;;;;4999260;28;20030;-72
2022/11/22 09:52:18;;;;;;;15.60;8.43;;;7.40;99.90;;;;;;5011836;28;20014;-71
2022/11/22 09:54:51;;;;;;;14.63;8.30;;;7.50;99.90;;;;;;5001919;28;20457;-73
2022/11/22 09:57:36;;;;;;;;;;;7.50;99.90;;;;;;5008187;28;20105;-73
2022/11/22 10:00:06;;;;;;;13.32;7.97;;;7.60;99.90;;;;;;5010421;28;20283;-73
2022/11/22 10:03:04;;;;;;;17.38;10.77;;;7.60;99.90;;;;;;4993673;28;20026;-72
2022/11/22 10:05:51;;;;;;;17.38;11.45;;;7.70;99.90;;;;;;5010860;28;20513;-72
2022/11/22 10:08:23;;;;;;;22.55;12.15;;;7.70;99.90;;;;;;5010894;28;20107;-71
2022/11/22 10:10:52;;;;;;;16.02;8.75;;;7.80;99.90;;;;;;4992377;28;20057;-72
2022/11/22 10:13:49;;;;;;;13.10;7.03;;;7.80;99.90;;;;;;5009755;28;20368;-73
2022/11/22 10:16:39;;;;;;;18.80;11.10;;;7.90;99.90;;;;;;5005582;28;20041;-72
2022/11/22 10:19:19;;;;;;;27.98;15.55;;;7.90;99.90;;;;;;5003863;28;20034;-72
2022/11/22 10:21:46;;;;;;;18.45;10.57;;;7.90;99.90;;;;;;5008641;28;20046;-71
2022/11/22 10:24:17;;;;;;;16.63;9.52;;;7.90;99.90;;;;;;4989991;28;20117;-72
2022/11/22 10:26:43;;;;;;;16.83;9.27;;;8.00;99.90;;;;;;5010276;28;20507;-71
2022/11/22 10:29:33;;;;;;;13.95;8.18;;;8.00;99.90;;;;;;5010784;28;20112;-72
2022/11/22 10:32:28;;;;;;;14.65;7.57;;;8.00;99.90;;;;;;5009046;28;20502;-72
2022/11/22 10:35:04;;;;;;;15.68;8.20;;;8.10;99.90;;;;;;5010021;28;20034;-72
2022/11/22 10:38:06;;;;;;;16.50;9.88;;;8.10;99.90;;;;;;4992331;28;20042;-72
2022/11/22 10:40:56;;;;;;;20.52;12.20;;;8.10;99.90;;;;;;4929255;29;20426;-73
2022/11/22 10:43:40;;;;;;;20.95;10.15;;;8.10;99.90;;;;;;4924722;29;20458;-72
2022/11/22 10:46:14;;;;;;;18.63;10.50;;;8.10;99.90;;;;;;4929756;29;20058;-70
2022/11/22 10:49:09;;;;;;;20.70;10.48;;;8.20;99.90;;;;;;4929659;29;20040;-72
2022/11/22 10:52:02;;;;;;;20.80;12.93;;;8.20;99.90;;;;;;4931023;29;20055;-73
2022/11/22 10:54:45;;;;;;;20.45;8.80;;;8.20;99.90;;;;;;4919690;29;20138;-71
2022/11/22 10:57:55;;;;;;;13.73;7.13;;;8.20;99.90;;;;;;4929264;29;20040;-72
2022/11/22 11:00:26;;;;;;;31.95;13.68;;;8.10;99.90;;;;;;4855485;29;20485;-74
2022/11/22 11:03:03;;;;;;;21.13;10.30;;;8.20;99.90;;;;;;4855705;29;20200;-71
2022/11/22 11:05:45;;;;;;;20.65;11.32;;;8.10;99.90;;;;;;4855266;29;20057;-70
2022/11/22 11:08:15;;;;;;;25.25;12.32;;;8.10;99.90;;;;;;4854926;29;20501;-70
2022/11/22 11:10:42;;;;;;;21.90;9.82;;;8.10;99.90;;;;;;4854744;29;20041;-70
2022/11/22 11:13:32;;;;;;;17.42;8.52;;;8.10;99.90;;;;;;4855562;29;20041;-72
2022/11/22 11:16:00;;;;;;;22.58;10.70;;;8.10;99.90;;;;;;4839681;29;20041;-71
2022/11/22 11:18:31;;;;;;;21.20;11.38;;;8.10;99.90;;;;;;4921822;29;20039;-71
2022/11/22 11:20:57;;;;;;;16.15;8.82;;;8.10;99.90;;;;;;4941460;29;20031;-71
2022/11/22 11:23:24;;;;;;;27.83;16.13;;;8.10;99.90;;;;;;4934658;29;20043;-71
2022/11/22 11:25:51;;;;;;;20.92;11.52;;;8.10;99.90;;;;;;4933462;29;20141;-71
2022/11/22 11:28:21;;;;;;;19.70;11.35;;;8.10;99.90;;;;;;4931915;29;20445;-73
2022/11/22 11:30:48;;;;;;;21.08;12.32;;;8.10;99.90;;;;;;4965186;28;20069;-70
2022/11/22 11:33:19;;;;;;;18.20;9.48;;;8.10;99.90;;;;;;4974793;28;20068;-72
2022/11/22 11:35:46;;;;;;;17.92;9.00;;;8.10;99.90;;;;;;5000423;28;20081;-75
2022/11/22 11:38:34;;;;;;;13.95;7.63;;;8.10;99.90;;;;;;4995096;28;20806;-73
2022/11/22 11:41:23;;;;;;;17.13;7.75;;;8.20;99.90;;;;;;4993893;28;20031;-69
2022/11/22 11:43:51;;;;;;;16.10;8.25;;;8.20;99.90;;;;;;4998052;28;20361;-70
2022/11/22 11:46:22;;;;;;;16.60;9.00;;;8.20;99.90;;;;;;5008356;28;20123;-71
2022/11/22 11:48:50;;;;;;;16.38;7.45;;;8.20;99.90;;;;;;5010334;28;20025;-73
2022/11/22 11:51:24;;;;;;;33.10;17.08;;;8.20;99.90;;;;;;4995452;28;20128;-70
2022/11/22 11:54:14;;;;;;;29.83;14.85;;;8.30;99.90;;;;;;4995895;28;20034;-69
2022/11/22 11:56:55;;;;;;;28.00;15.27;;;8.30;99.90;;;;;;5010184;28;20026;-70
2022/11/22 11:59:23;;;;;;;21.60;12.63;;;8.30;99.90;;;;;;4983257;28;20034;-68
2022/11/22 12:01:57;;;;;;;27.52;15.98;;;8.30;99.90;;;;;;4995400;28;20034;-69
2022/11/22 12:04:33;;;;;;;20.80;11.93;;;8.30;99.90;;;;;;5000106;28;20194;-73
2022/11/22 12:07:24;;;;;;;22.02;10.50;;;8.30;99.90;;;;;;5006495;28;20038;-70
2022/11/22 12:09:53;;;;;;;21.23;9.70;;;8.30;99.90;;;;;;5003117;28;20057;-76
2022/11/22 12:13:10;;;;;;;15.40;9.05;;;8.40;99.90;;;;;;5012112;28;20021;-69
2022/11/22 12:15:39;;;;;;;17.80;9.23;;;8.40;99.90;;;;;;4910022;29;20047;-71
2022/11/22 12:18:30;;;;;;;18.50;8.55;;;8.40;99.90;;;;;;4914871;29;20075;-78
2022/11/22 12:21:36;;;;;;;15.32;7.55;;;8.40;99.90;;;;;;4897728;29;20043;-69
2022/11/22 12:24:52;;;;;;;15.63;8.25;;;8.40;99.90;;;;;;4904004;29;20035;-69
2022/11/22 12:27:19;;;;;;;19.00;9.98;;;8.40;99.90;;;;;;5013476;23;20061;-79
2022/11/22 12:29:48;;;;;;;16.50;7.93;;;8.50;99.90;;;;;;5029553;28;20025;-77
2022/11/22 12:32:36;;;;;;;16.23;7.75;;;8.50;99.90;;;;;;5010325;28;20558;-69
2022/11/22 12:35:07;;;;;;;17.55;8.35;;;8.50;99.90;;;;;;5010775;28;20030;-68
2022/11/22 12:37:38;;;;;;;15.38;7.20;;;8.50;99.90;;;;;;5017416;28;20026;-69
2022/11/22 12:40:37;;;;;;;16.77;7.97;;;8.50;99.90;;;;;;5023532;28;20053;-69
2022/11/22 12:43:36;;;;;;;14.82;8.45;;;8.50;99.90;;;;;;5011289;28;20095;-71
2022/11/22 12:46:16;;;;;;;13.88;8.82;;;8.50;99.90;;;;;;5025126;28;20483;-71
2022/11/22 12:48:52;;;;;;;16.02;8.68;;;8.50;99.90;;;;;;5030635;28;20566;-80
2022/11/22 12:51:27;;;;;;;15.15;8.25;;;8.50;99.90;;;;;;5027980;28;20050;-70
2022/11/22 12:53:59;;;;;;;13.15;7.22;;;8.50;99.90;;;;;;5027257;28;20036;-73
2022/11/22 12:56:40;;;;;;;12.90;7.03;;;8.50;99.90;;;;;;5031020;28;20034;-76
2022/11/22 12:59:09;;;;;;;14.60;7.15;;;8.60;99.90;;;;;;5028158;28;20052;-78
2022/11/22 13:01:41;;;;;;;14.52;7.65;;;8.50;99.90;;;;;;5030541;28;20096;-74
2022/11/22 13:04:21;;;;;;;17.08;8.82;;;8.50;99.90;;;;;;5032881;28;20490;-78
2022/11/22 13:07:00;;;;;;;19.98;9.93;;;8.60;99.90;;;;;;5039488;28;20472;-79
2022/11/22 13:09:40;;;;;;;13.40;7.55;;;8.60;99.90;;;;;;5037193;28;20049;-78